»·PEaware :: WAT380 KSBA-KDEN

WAT380 :: KSBA-KDEN

FLIGHT INFORMATION

Flight Status: Arrived
Operator:
Walker Air Transport
More flights by this operator :: More flights under this callsign
Pilot: Spencer M. (27733)
Aircraft: BOEING 737-800
(B738)
More flights by this aircraft type
Origin: KSBA Santa Barbara Mun
United States
Destination: KDEN Denver Intl
United States
More flights between these airports :: More routes between these airports
Route: MISHN3 NNAVY LAS DICEE BUMMP SSKII2
File this flight plan on PilotEdge
Remarks:
Altitude:
(Current/Filed)
35,000ft
Speed:
(Current/Filed)
450kts
Departed: 23-Feb-21 08:34 AM
Arrived: 23-Feb-21 10:30 AM
Distance/Time
Traveled:
794nm/1:56
Distance/Time
To Go:
Arrived

Flight Plot

Page will automatically refresh every two minutes.

Flight plan parsing failed; only flown route is shown


Map Options




Map Legend


Flown Route
Filed Route
Departure Airport
Arrival Airport
Navaid (VOR, NDB)
Fix

Horizontal Profiles

Position Reports

Time Latitude Longitude Heading Altitude Ground
Speed
23-Feb-21 08:09 34.425746 -119.837269 96 17ft 0kts
23-Feb-21 08:10 34.425746 -119.837269 96 17ft 0kts
23-Feb-21 08:11 34.425746 -119.837269 96 17ft 0kts
23-Feb-21 08:12 34.425746 -119.837269 96 17ft 0kts
23-Feb-21 08:13 34.425746 -119.837269 96 17ft 0kts
23-Feb-21 08:14 34.425746 -119.837269 96 17ft 0kts
23-Feb-21 08:15 34.425746 -119.837269 96 17ft 0kts
23-Feb-21 08:16 34.425746 -119.837269 96 17ft 0kts
23-Feb-21 08:17 34.425746 -119.837269 96 17ft 0kts
23-Feb-21 08:18 34.425746 -119.837269 96 17ft 0kts
23-Feb-21 08:19 34.425746 -119.837269 96 17ft 0kts
23-Feb-21 08:20 34.425746 -119.837269 96 17ft 0kts
23-Feb-21 08:21 34.425746 -119.837269 96 17ft 0kts
23-Feb-21 08:22 34.425746 -119.837269 96 17ft 0kts
23-Feb-21 08:23 34.425746 -119.837269 96 17ft 0kts
23-Feb-21 08:24 34.425746 -119.837269 96 17ft 0kts
23-Feb-21 08:25 34.425731 -119.837438 59 17ft 2kts
23-Feb-21 08:26 34.425196 -119.837515 347 17ft 1kts
23-Feb-21 08:27 34.425186 -119.837512 347 17ft 0kts
23-Feb-21 08:28 34.425287 -119.837582 325 17ft 3kts
23-Feb-21 08:29 34.426729 -119.837056 87 18ft 12kts
23-Feb-21 08:30 34.426998 -119.834675 16 17ft 0kts
23-Feb-21 08:31 34.426998 -119.834675 16 17ft 0kts
23-Feb-21 08:32 34.427317 -119.834635 359 18ft 5kts
23-Feb-21 08:33 34.427743 -119.843247 268 19ft 112kts
23-Feb-21 08:34 34.425390 -119.896498 266 1719ft 165kts
23-Feb-21 08:35 34.387733 -119.935754 185 3281ft 243kts
23-Feb-21 08:36 34.321697 -119.909064 133 6407ft 273kts
23-Feb-21 08:37 34.267009 -119.841712 134 8069ft 287kts
23-Feb-21 08:38 34.213495 -119.768205 114 10582ft 321kts
23-Feb-21 08:39 34.198436 -119.654295 92 12843ft 357kts
23-Feb-21 08:40 34.195374 -119.532571 86 15567ft 369kts
23-Feb-21 08:41 34.200577 -119.407413 86 18030ft 380kts
23-Feb-21 08:42 34.205761 -119.278072 87 20280ft 391kts
23-Feb-21 08:43 34.210912 -119.145732 86 22286ft 402kts
23-Feb-21 08:44 34.229782 -119.011153 76 24045ft 413kts
23-Feb-21 08:45 34.257014 -118.873785 77 25554ft 427kts
23-Feb-21 08:46 34.285092 -118.732468 77 26929ft 440kts
23-Feb-21 08:47 34.313908 -118.586344 77 28203ft 452kts
23-Feb-21 08:48 34.343973 -118.436875 76 29420ft 463kts
23-Feb-21 08:50 34.376522 -118.285334 76 30669ft 468kts
23-Feb-21 08:51 34.409343 -118.132918 77 32088ft 467kts
23-Feb-21 08:52 34.439579 -117.981176 65 33290ft 471kts
23-Feb-21 08:53 34.496864 -117.838904 66 34481ft 470kts
23-Feb-21 08:54 34.551936 -117.694593 66 35219ft 475kts
23-Feb-21 08:55 34.607365 -117.550626 65 35219ft 471kts
23-Feb-21 08:56 34.662898 -117.406306 65 35219ft 473kts
23-Feb-21 08:57 34.718369 -117.261790 66 35219ft 472kts
23-Feb-21 08:58 34.773754 -117.116905 65 35219ft 473kts
23-Feb-21 08:59 34.828868 -116.972058 65 35218ft 472kts
23-Feb-21 09:00 34.883759 -116.827208 65 35202ft 473kts
23-Feb-21 09:01 34.952141 -116.690934 51 35200ft 474kts
23-Feb-21 09:02 35.039357 -116.570426 47 35201ft 474kts
23-Feb-21 09:03 35.128165 -116.451998 46 35201ft 474kts
23-Feb-21 09:04 35.217163 -116.333326 47 35201ft 474kts
23-Feb-21 09:05 35.305950 -116.214727 47 35201ft 474kts
23-Feb-21 09:06 35.394694 -116.095759 47 35199ft 474kts
23-Feb-21 09:07 35.483244 -115.976627 46 35190ft 474kts
23-Feb-21 09:08 35.572016 -115.856774 46 35182ft 475kts
23-Feb-21 09:09 35.660687 -115.736631 46 35183ft 475kts
23-Feb-21 09:10 35.749148 -115.616343 46 35182ft 475kts
23-Feb-21 09:11 35.837288 -115.496063 46 35182ft 475kts
23-Feb-21 09:11 35.910893 -115.395288 46 35176ft 476kts
23-Feb-21 09:13 36.013980 -115.253356 50 35163ft 476kts
23-Feb-21 09:14 36.084284 -115.114909 63 35170ft 479kts
23-Feb-21 09:15 36.138130 -114.964052 67 35181ft 480kts
23-Feb-21 09:16 36.187127 -114.810511 68 35182ft 481kts
23-Feb-21 09:16 36.227084 -114.681804 69 35183ft 482kts
23-Feb-21 09:17 36.274601 -114.526898 69 35183ft 483kts
23-Feb-21 09:18 36.321853 -114.371629 69 35183ft 483kts
23-Feb-21 09:20 36.376970 -114.189511 69 35187ft 483kts
23-Feb-21 09:20 36.416041 -114.059600 69 35207ft 483kts
23-Feb-21 09:21 36.462717 -113.903551 69 35219ft 485kts
23-Feb-21 09:22 36.509437 -113.746462 69 35219ft 484kts
23-Feb-21 09:23 36.555805 -113.589672 69 35219ft 484kts
23-Feb-21 09:24 36.601984 -113.432641 69 35219ft 484kts
23-Feb-21 09:25 36.647911 -113.275680 70 35219ft 484kts
23-Feb-21 09:26 36.693801 -113.117990 70 35219ft 484kts
23-Feb-21 09:27 36.739336 -112.960518 70 35219ft 484kts
23-Feb-21 09:28 36.784837 -112.802224 70 35227ft 486kts
23-Feb-21 09:29 36.830088 -112.643865 70 35228ft 486kts
23-Feb-21 09:30 36.875154 -112.485233 70 35228ft 486kts
23-Feb-21 09:31 36.920107 -112.326081 70 35228ft 486kts
23-Feb-21 09:32 36.964675 -112.167565 70 35219ft 486kts
23-Feb-21 09:33 37.009153 -112.008262 71 35213ft 485kts
23-Feb-21 09:34 37.053414 -111.848746 71 35195ft 486kts
23-Feb-21 09:35 37.097366 -111.689369 71 35191ft 485kts
23-Feb-21 09:36 37.141132 -111.529716 71 35194ft 486kts
23-Feb-21 09:37 37.184794 -111.369460 71 35199ft 486kts
23-Feb-21 09:38 37.224559 -111.208070 70 35199ft 485kts
23-Feb-21 09:39 37.284834 -111.056976 62 35212ft 486kts
23-Feb-21 09:40 37.345677 -110.906106 63 35224ft 485kts
23-Feb-21 09:41 37.405819 -110.754887 63 35228ft 484kts
23-Feb-21 09:42 37.465574 -110.603469 63 35228ft 484kts
23-Feb-21 09:43 37.525218 -110.451475 63 35229ft 484kts
23-Feb-21 09:44 37.584466 -110.299778 64 35228ft 483kts
23-Feb-21 09:45 37.643512 -110.147938 64 35228ft 483kts
23-Feb-21 09:46 37.702349 -109.995787 64 35250ft 482kts
23-Feb-21 09:47 37.760734 -109.844033 64 35265ft 482kts
23-Feb-21 09:48 37.819040 -109.691732 64 35247ft 482kts
23-Feb-21 09:49 37.877426 -109.538458 64 35227ft 484kts
23-Feb-21 09:50 37.935431 -109.385430 64 35210ft 483kts
23-Feb-21 09:51 37.993179 -109.232445 65 35210ft 483kts
23-Feb-21 09:52 38.051229 -109.077827 65 35202ft 487kts
23-Feb-21 09:53 38.109045 -108.923000 65 35192ft 486kts
23-Feb-21 09:54 38.167945 -108.768654 64 35192ft 486kts
23-Feb-21 09:55 38.227859 -108.614646 64 35192ft 486kts
23-Feb-21 09:56 38.287828 -108.460785 64 35191ft 485kts
23-Feb-21 09:57 38.347493 -108.307310 64 35192ft 485kts
23-Feb-21 09:58 38.407072 -108.153493 64 35192ft 484kts
23-Feb-21 09:59 38.466215 -107.999819 65 35192ft 485kts
23-Feb-21 10:00 38.524274 -107.844418 65 35192ft 485kts
23-Feb-21 10:01 38.582626 -107.688930 64 35191ft 487kts
23-Feb-21 10:02 38.641100 -107.532939 64 35192ft 488kts
23-Feb-21 10:03 38.699884 -107.376487 64 35192ft 489kts
23-Feb-21 10:04 38.758976 -107.220042 64 35191ft 490kts
23-Feb-21 10:05 38.818152 -107.062907 64 35191ft 486kts
23-Feb-21 10:06 38.876545 -106.907088 64 35170ft 487kts
23-Feb-21 10:07 38.934698 -106.751134 65 33472ft 485kts
23-Feb-21 10:08 38.990564 -106.600538 65 30351ft 462kts
23-Feb-21 10:09 39.046903 -106.445143 64 27825ft 482kts
23-Feb-21 10:10 39.102672 -106.291415 65 25326ft 478kts
23-Feb-21 10:11 39.160483 -106.129825 64 23106ft 505kts
23-Feb-21 10:12 39.218387 -105.970288 63 23082ft 460kts
23-Feb-21 10:13 39.272167 -105.821659 63 22801ft 469kts
23-Feb-21 10:14 39.330938 -105.657960 63 20738ft 481kts
23-Feb-21 10:15 39.384613 -105.510106 62 20218ft 434kts
23-Feb-21 10:16 39.412433 -105.366539 86 19868ft 400kts
23-Feb-21 10:17 39.416976 -105.226022 90 19055ft 386kts
23-Feb-21 10:18 39.418578 -105.088553 90 17505ft 384kts
23-Feb-21 10:19 39.419241 -104.952040 88 14417ft 378kts
23-Feb-21 10:20 39.430025 -104.818131 82 11665ft 363kts
23-Feb-21 10:21 39.456630 -104.703859 46 11035ft 317kts
23-Feb-21 10:22 39.524394 -104.681410 30 11067ft 247kts
23-Feb-21 10:23 39.587594 -104.661075 351 10301ft 231kts
23-Feb-21 10:24 39.645421 -104.662746 358 9099ft 184kts
23-Feb-21 10:25 39.696625 -104.662176 359 8129ft 177kts
23-Feb-21 10:26 39.742001 -104.661615 359 7172ft 159kts
23-Feb-21 10:27 39.785097 -104.661122 3 6321ft 153kts
23-Feb-21 10:28 39.827597 -104.660626 3 5506ft 152kts
23-Feb-21 10:29 39.851746 -104.660783 338 5443ft 22kts
23-Feb-21 10:30 39.853555 -104.661990 331 5443ft 5kts
23-Feb-21 10:31 39.856507 -104.662447 333 5443ft 11kts
23-Feb-21 10:32 39.856577 -104.666448 267 5443ft 13kts
23-Feb-21 10:33 39.857966 -104.668314 0 5443ft 0kts
23-Feb-21 10:34 39.857966 -104.668314 0 5443ft 0kts
23-Feb-21 10:35 39.857966 -104.668314 0 5443ft 0kts

Navigation Log

Ident Type
Flight plan parsing failed, navigation log unavailable